createdAt,value
2022-08-06T00:01:01.233Z,72.30
2022-08-06T00:03:29.279Z,71.30
2022-08-06T00:06:00.053Z,70.80
2022-08-06T00:08:28.529Z,71.00
2022-08-06T00:10:57.745Z,70.20
2022-08-06T00:13:27.036Z,69.40
2022-08-06T00:16:09.047Z,69.30
2022-08-06T00:18:44.264Z,70.10
2022-08-06T00:21:40.746Z,69.80
2022-08-06T00:24:00.794Z,70.10
2022-08-06T00:26:30.030Z,70.70
2022-08-06T00:28:59.648Z,71.00
2022-08-06T00:31:30.326Z,71.00
2022-08-06T00:34:02.418Z,70.70
2022-08-06T00:36:31.229Z,71.00
2022-08-06T00:39:07.578Z,71.60
2022-08-06T00:41:45.565Z,71.60
2022-08-06T00:44:30.968Z,72.40
2022-08-06T00:47:01.859Z,73.80
2022-08-06T00:49:48.687Z,73.30
2022-08-06T00:52:20.101Z,74.00
2022-08-06T00:54:50.291Z,77.00
2022-08-06T00:57:18.497Z,77.50
2022-08-06T00:59:52.327Z,79.40
2022-08-06T01:02:23.729Z,76.90
2022-08-06T01:05:06.676Z,82.10
2022-08-06T01:07:51.519Z,82.10
2022-08-06T01:10:30.980Z,84.20
2022-08-06T01:13:25.701Z,83.50
2022-08-06T01:16:11.273Z,81.50
2022-08-06T01:18:52.715Z,79.70
2022-08-06T01:22:31.548Z,79.70
2022-08-06T01:25:03.835Z,79.90
2022-08-06T01:27:42.930Z,76.80
2022-08-06T01:30:15.842Z,76.50
2022-08-06T01:32:57.497Z,76.30
2022-08-06T01:35:47.645Z,75.60
2022-08-06T01:38:29.036Z,76.00
2022-08-06T01:41:00.010Z,77.10
2022-08-06T01:44:07.773Z,77.30
2022-08-06T01:46:20.114Z,79.30
2022-08-06T01:48:53.180Z,80.70
2022-08-06T01:52:15.228Z,81.40
2022-08-06T01:54:15.024Z,83.20
2022-08-06T01:56:57.242Z,81.50
2022-08-06T01:59:34.447Z,84.40
2022-08-06T02:02:10.038Z,83.50
2022-08-06T02:04:44.818Z,84.40
2022-08-06T02:08:37.822Z,83.60
2022-08-06T02:10:10.680Z,84.00
2022-08-06T02:12:46.440Z,83.60
2022-08-06T02:15:19.567Z,82.40
2022-08-06T02:18:06.191Z,82.70
2022-08-06T02:20:42.349Z,83.40
2022-08-06T02:23:24.626Z,80.90
2022-08-06T02:26:02.350Z,81.90
2022-08-06T02:28:33.192Z,83.30
2022-08-06T02:31:05.771Z,81.40
2022-08-06T02:34:02.416Z,79.80
2022-08-06T02:36:31.843Z,80.70
2022-08-06T02:39:04.267Z,80.50
2022-08-06T02:41:55.055Z,80.90
2022-08-06T02:44:38.029Z,78.50
2022-08-06T02:47:21.122Z,77.50
2022-08-06T02:49:56.740Z,77.20
2022-08-06T02:52:41.959Z,79.00
2022-08-06T02:55:20.296Z,75.80
2022-08-06T02:57:52.117Z,75.60
2022-08-06T03:00:29.153Z,75.40
2022-08-06T03:03:03.065Z,74.70
2022-08-06T03:05:55.002Z,74.10
2022-08-06T03:08:28.960Z,77.20
2022-08-06T03:10:59.465Z,76.70
2022-08-06T03:13:29.618Z,76.20
2022-08-06T03:16:23.692Z,79.20
2022-08-06T03:19:55.467Z,82.50
2022-08-06T03:21:55.902Z,81.10
2022-08-06T03:24:27.378Z,81.80
2022-08-06T03:26:59.536Z,84.10
2022-08-06T03:29:30.011Z,83.60
2022-08-06T03:32:24.485Z,84.00
2022-08-06T03:34:49.036Z,86.60
2022-08-06T03:37:45.453Z,88.80
2022-08-06T03:40:12.337Z,89.70
2022-08-06T03:42:44.053Z,92.10
2022-08-06T03:45:23.589Z,90.70
2022-08-06T03:48:07.427Z,90.30
2022-08-06T03:50:46.996Z,91.20
2022-08-06T03:53:25.080Z,89.70
2022-08-06T03:55:57.173Z,90.90
2022-08-06T03:58:28.551Z,90.30
2022-08-06T04:01:02.022Z,85.00
2022-08-06T04:03:33.432Z,85.60
2022-08-06T04:06:16.762Z,80.80
2022-08-06T04:08:50.907Z,78.10
2022-08-06T04:12:13.025Z,77.30
2022-08-06T04:14:13.113Z,75.70
2022-08-06T04:16:49.311Z,75.80
2022-08-06T04:19:20.549Z,77.80
2022-08-06T04:22:57.435Z,80.10
2022-08-06T04:24:52.119Z,80.60
2022-08-06T04:27:22.566Z,81.70
2022-08-06T04:29:59.089Z,82.90
2022-08-06T04:32:34.593Z,85.00
2022-08-06T04:36:06.827Z,84.50
2022-08-06T04:37:55.710Z,84.80
2022-08-06T04:40:35.091Z,86.50
2022-08-06T04:43:13.451Z,86.80
2022-08-06T04:46:15.771Z,85.20
2022-08-06T04:48:39.891Z,85.40
2022-08-06T04:52:46.900Z,83.60
2022-08-06T04:54:12.475Z,84.10
2022-08-06T04:56:48.354Z,83.10
2022-08-06T04:59:19.480Z,81.60
2022-08-06T05:01:56.836Z,81.10
2022-08-06T05:04:32.704Z,80.50
2022-08-06T05:07:13.230Z,82.50
2022-08-06T05:09:53.859Z,79.60
2022-08-06T05:12:28.086Z,80.80
2022-08-06T05:15:03.767Z,78.70
2022-08-06T05:17:37.132Z,79.10
2022-08-06T05:20:26.459Z,80.00
2022-08-06T05:23:04.162Z,78.30
2022-08-06T05:25:39.656Z,76.80
2022-08-06T05:28:19.400Z,77.20
2022-08-06T05:30:52.544Z,76.00
2022-08-06T05:33:29.734Z,75.70
2022-08-06T05:36:01.549Z,73.60
2022-08-06T05:38:35.719Z,72.80
2022-08-06T05:41:07.562Z,71.90
2022-08-06T05:43:58.843Z,71.00
2022-08-06T05:46:25.766Z,68.20
2022-08-06T05:49:00.528Z,67.20
2022-08-06T05:51:43.227Z,67.10
2022-08-06T05:54:19.783Z,66.70
2022-08-06T05:56:53.715Z,66.10
2022-08-06T05:59:37.555Z,64.70
2022-08-06T06:02:16.697Z,64.60
2022-08-06T06:06:06.484Z,65.10
2022-08-06T06:08:10.180Z,63.80
2022-08-06T06:10:27.305Z,65.10
2022-08-06T06:12:57.390Z,64.30
2022-08-06T06:16:01.382Z,63.60
2022-08-06T06:18:33.878Z,63.00
2022-08-06T06:21:18.650Z,63.90
2022-08-06T06:24:08.266Z,62.90
2022-08-06T06:26:44.256Z,63.20
2022-08-06T06:30:00.847Z,63.10
2022-08-06T06:32:30.839Z,62.50
2022-08-06T06:35:07.275Z,62.00
2022-08-06T06:37:43.779Z,61.50
2022-08-06T06:40:32.117Z,61.10
2022-08-06T06:43:10.402Z,61.20
2022-08-06T06:46:06.568Z,60.50
2022-08-06T06:48:48.200Z,61.00
2022-08-06T06:51:27.258Z,60.80
2022-08-06T06:54:22.741Z,61.70
2022-08-06T06:56:58.986Z,59.70
2022-08-06T07:00:01.675Z,59.90
2022-08-06T07:02:32.498Z,60.80
2022-08-06T07:05:04.186Z,59.80
2022-08-06T07:07:34.167Z,59.50
2022-08-06T07:10:03.772Z,59.00
2022-08-06T07:12:36.069Z,59.30
2022-08-06T07:15:15.041Z,59.00
2022-08-06T07:17:49.906Z,59.40
2022-08-06T07:20:25.943Z,58.30
2022-08-06T07:24:04.588Z,58.60
2022-08-06T07:25:53.882Z,58.80
2022-08-06T07:28:27.899Z,58.10
2022-08-06T07:31:04.452Z,56.90
2022-08-06T07:33:59.744Z,57.10
2022-08-06T07:36:36.737Z,57.30
2022-08-06T07:39:09.090Z,56.10
2022-08-06T07:42:07.628Z,55.20
2022-08-06T07:44:54.247Z,55.00
2022-08-06T07:47:46.217Z,55.70
2022-08-06T07:50:23.461Z,55.30
2022-08-06T07:53:02.558Z,52.00
2022-08-06T07:55:40.000Z,51.60
2022-08-06T07:58:10.254Z,52.20
2022-08-06T08:00:42.062Z,53.30
2022-08-06T08:03:58.041Z,52.40
2022-08-06T08:06:27.540Z,50.00
2022-08-06T08:08:58.788Z,49.30
2022-08-06T08:11:38.053Z,48.60
2022-08-06T08:14:23.100Z,47.70
2022-08-06T08:16:55.238Z,47.80
2022-08-06T08:19:56.334Z,48.00
2022-08-06T08:22:25.902Z,47.60
2022-08-06T08:24:54.923Z,47.00
2022-08-06T08:27:25.907Z,46.30
2022-08-06T08:29:59.729Z,45.00
2022-08-06T08:32:28.241Z,45.40
2022-08-06T08:34:57.382Z,45.20
2022-08-06T08:37:31.924Z,44.60
2022-08-06T08:40:01.504Z,44.60
2022-08-06T08:42:38.483Z,45.30
2022-08-06T08:45:08.918Z,44.70
2022-08-06T08:47:53.250Z,45.30
2022-08-06T08:50:58.131Z,45.10
2022-08-06T08:54:09.312Z,44.80
2022-08-06T08:57:09.689Z,45.80
2022-08-06T09:00:41.949Z,45.90
2022-08-06T09:03:51.378Z,45.20
2022-08-06T09:07:03.454Z,45.90
2022-08-06T09:10:12.352Z,45.50
2022-08-06T09:13:03.782Z,44.20
2022-08-06T09:16:19.149Z,44.30
2022-08-06T09:19:14.455Z,44.00
2022-08-06T09:22:11.947Z,44.90
2022-08-06T09:25:19.506Z,44.10
2022-08-06T09:28:22.324Z,44.60
2022-08-06T09:34:37.957Z,43.20
2022-08-06T09:37:04.909Z,42.80
2022-08-06T09:39:59.905Z,42.70
2022-08-06T09:42:44.590Z,42.30
2022-08-06T09:45:21.572Z,41.70
2022-08-06T09:48:17.774Z,42.70
2022-08-06T09:51:00.312Z,43.30
2022-08-06T09:54:05.531Z,42.10
2022-08-06T09:57:23.251Z,42.00
2022-08-06T10:00:26.895Z,41.70
2022-08-06T10:04:02.219Z,42.00
2022-08-06T10:06:45.666Z,41.60
2022-08-06T10:09:43.890Z,42.10
2022-08-06T10:12:20.254Z,42.20
2022-08-06T10:16:03.691Z,41.90
2022-08-06T10:18:55.945Z,41.10
2022-08-06T10:21:33.324Z,40.70
2022-08-06T10:24:12.518Z,40.90
2022-08-06T10:26:44.471Z,40.60
2022-08-06T10:29:14.298Z,40.90
2022-08-06T10:31:43.362Z,39.70
2022-08-06T10:34:17.221Z,39.30
2022-08-06T10:36:53.958Z,38.90
2022-08-06T10:40:10.059Z,39.00
2022-08-06T10:42:21.753Z,39.00
2022-08-06T10:44:53.751Z,37.50
2022-08-06T10:48:58.493Z,38.30
2022-08-06T10:50:32.745Z,37.70
2022-08-06T10:53:06.241Z,37.20
2022-08-06T10:55:43.950Z,38.40
2022-08-06T10:58:13.898Z,38.50
2022-08-06T11:00:44.713Z,37.30
2022-08-06T11:03:19.225Z,37.90
2022-08-06T11:05:59.472Z,37.80
2022-08-06T11:09:01.006Z,36.30
2022-08-06T11:12:02.742Z,36.30
2022-08-06T11:14:37.938Z,36.80
2022-08-06T11:17:08.085Z,37.30
2022-08-06T11:19:46.570Z,37.30
2022-08-06T11:22:35.469Z,37.00
2022-08-06T11:25:14.382Z,36.80
2022-08-06T11:27:59.306Z,37.00
2022-08-06T11:30:39.812Z,36.80
2022-08-06T11:33:11.087Z,36.60
2022-08-06T11:35:48.897Z,36.00
2022-08-06T11:38:58.197Z,36.50
2022-08-06T11:41:50.496Z,35.90
2022-08-06T11:44:24.758Z,35.10
2022-08-06T11:47:31.188Z,35.60
2022-08-06T11:50:27.379Z,35.30
2022-08-06T11:52:57.789Z,35.20
2022-08-06T11:55:26.986Z,35.60
2022-08-06T11:58:23.929Z,35.70
2022-08-06T12:01:33.464Z,36.00
2022-08-06T12:03:52.752Z,35.50
2022-08-06T12:06:25.930Z,34.90
2022-08-06T12:09:23.437Z,35.10
2022-08-06T12:12:38.371Z,35.20
2022-08-06T12:15:58.991Z,34.90
2022-08-06T12:18:29.771Z,36.10
2022-08-06T12:21:00.101Z,36.40
2022-08-06T12:23:54.667Z,34.30
2022-08-06T12:26:33.652Z,33.40
2022-08-06T12:29:09.757Z,33.10
2022-08-06T12:31:48.430Z,32.80
2022-08-06T12:34:31.016Z,33.50
2022-08-06T12:37:01.735Z,32.80
2022-08-06T12:39:53.992Z,32.70
2022-08-06T12:42:53.323Z,32.10
2022-08-06T12:46:05.111Z,32.10
2022-08-06T12:48:11.225Z,31.80
2022-08-06T12:50:41.848Z,32.60
2022-08-06T12:53:12.057Z,31.90
2022-08-06T12:55:46.420Z,33.40
2022-08-06T12:58:42.616Z,31.90
2022-08-06T13:01:08.710Z,32.40
2022-08-06T13:03:42.900Z,31.30
2022-08-06T13:06:32.343Z,31.30
2022-08-06T13:09:07.882Z,30.20
2022-08-06T13:11:37.548Z,31.40
2022-08-06T13:14:16.971Z,30.00
2022-08-06T13:16:56.732Z,30.10
2022-08-06T13:19:28.066Z,30.20
2022-08-06T13:22:01.367Z,29.50
2022-08-06T13:24:35.300Z,29.10
2022-08-06T13:27:06.066Z,29.40
2022-08-06T13:30:32.914Z,29.90
2022-08-06T13:32:33.993Z,28.40
2022-08-06T13:35:16.675Z,29.50
2022-08-06T13:37:56.205Z,29.70
2022-08-06T13:40:47.105Z,28.70
2022-08-06T13:43:39.285Z,28.00
2022-08-06T13:46:17.011Z,28.70
2022-08-06T13:48:47.101Z,29.50
2022-08-06T13:51:22.186Z,29.70
2022-08-06T13:53:51.411Z,30.20
2022-08-06T13:56:21.586Z,30.10
2022-08-06T13:58:56.755Z,30.60
2022-08-06T14:01:34.760Z,30.20
2022-08-06T14:04:14.349Z,29.60
2022-08-06T14:06:44.854Z,30.00
2022-08-06T14:09:20.311Z,29.60
2022-08-06T14:11:53.893Z,29.50
2022-08-06T14:14:23.361Z,29.50
2022-08-06T14:16:53.322Z,30.00
2022-08-06T14:20:14.122Z,29.60
2022-08-06T14:22:11.228Z,29.30
2022-08-06T14:24:40.338Z,29.00
2022-08-06T14:27:15.811Z,28.60
2022-08-06T14:30:28.602Z,30.00
2022-08-06T14:32:34.879Z,29.40
2022-08-06T14:35:04.992Z,28.30
2022-08-06T14:37:49.901Z,28.50
2022-08-06T14:41:01.265Z,29.20
2022-08-06T14:43:54.746Z,28.30
2022-08-06T14:46:26.565Z,28.30
2022-08-06T14:48:58.125Z,29.50
2022-08-06T14:51:37.216Z,29.00
2022-08-06T14:54:17.539Z,29.40
2022-08-06T14:56:52.577Z,29.30
2022-08-06T14:59:26.190Z,29.30
2022-08-06T15:02:02.326Z,29.20
2022-08-06T15:04:34.164Z,28.40
2022-08-06T15:07:02.782Z,28.90
2022-08-06T15:10:05.316Z,29.30
2022-08-06T15:12:40.227Z,28.70
2022-08-06T15:15:13.629Z,28.90
2022-08-06T15:18:05.596Z,28.00
2022-08-06T15:20:30.686Z,28.80
2022-08-06T15:23:00.008Z,29.40
2022-08-06T15:25:59.734Z,29.10
2022-08-06T15:28:19.542Z,28.80
2022-08-06T15:30:47.975Z,28.30
2022-08-06T15:33:17.009Z,28.50
2022-08-06T15:35:58.491Z,29.50
2022-08-06T15:38:32.753Z,28.90
2022-08-06T15:41:03.419Z,28.80
2022-08-06T15:43:44.081Z,28.80
2022-08-06T15:46:14.496Z,28.20
2022-08-06T15:48:47.057Z,29.00
2022-08-06T15:51:29.006Z,27.90
2022-08-06T15:53:58.860Z,28.40
2022-08-06T15:56:33.898Z,28.00
2022-08-06T15:59:12.208Z,28.40
2022-08-06T16:02:01.629Z,28.10
2022-08-06T16:04:38.113Z,28.90
2022-08-06T16:07:10.104Z,29.00
2022-08-06T16:12:30.182Z,28.70
2022-08-06T16:15:06.786Z,28.70
2022-08-06T16:18:05.359Z,29.60
2022-08-06T16:20:34.674Z,29.00
2022-08-06T16:23:06.796Z,28.40
2022-08-06T16:26:01.215Z,28.30
2022-08-06T16:28:33.426Z,27.50
2022-08-06T16:31:11.238Z,27.20
2022-08-06T16:33:53.758Z,27.40
2022-08-06T16:36:21.026Z,28.10
2022-08-06T16:39:01.328Z,28.60
2022-08-06T16:41:56.574Z,28.70
2022-08-06T16:44:34.716Z,28.30
2022-08-06T16:47:06.425Z,28.40
2022-08-06T16:50:17.717Z,29.30
2022-08-06T16:54:07.607Z,28.60
2022-08-06T16:56:27.848Z,29.10
2022-08-06T16:58:56.356Z,28.30
2022-08-06T17:02:19.530Z,27.30
2022-08-06T17:04:26.943Z,27.60
2022-08-06T17:06:57.660Z,27.10
2022-08-06T17:09:27.951Z,26.30
2022-08-06T17:12:00.679Z,26.40
2022-08-06T17:14:32.104Z,26.60
2022-08-06T17:19:55.680Z,26.30
2022-08-06T17:22:30.571Z,25.40
2022-08-06T17:24:59.349Z,25.30
2022-08-06T17:30:18.791Z,24.80
2022-08-06T17:32:54.408Z,24.20
2022-08-06T17:35:23.409Z,24.90
2022-08-06T17:38:15.687Z,25.30
2022-08-06T17:40:49.176Z,25.80
2022-08-06T17:43:22.753Z,25.40
2022-08-06T17:46:26.236Z,25.70
2022-08-06T17:48:56.008Z,25.50
2022-08-06T17:51:32.881Z,26.10
2022-08-06T17:54:44.336Z,26.20
2022-08-06T17:56:51.278Z,26.00
2022-08-06T17:59:21.871Z,25.80
2022-08-06T18:01:51.319Z,27.50
2022-08-06T18:04:31.086Z,28.20
2022-08-06T18:07:10.503Z,28.90
2022-08-06T18:10:08.741Z,29.50
2022-08-06T18:12:28.253Z,30.00
2022-08-06T18:14:56.479Z,29.60
2022-08-06T18:17:47.951Z,29.70
2022-08-06T18:20:28.619Z,30.00
2022-08-06T18:23:02.955Z,30.00
2022-08-06T18:25:55.851Z,30.80
2022-08-06T18:28:31.550Z,31.10
2022-08-06T18:33:37.800Z,30.90
2022-08-06T18:36:12.974Z,31.10
2022-08-06T18:38:42.941Z,31.20
2022-08-06T18:41:22.830Z,31.00
2022-08-06T18:43:58.035Z,31.50
2022-08-06T18:46:56.376Z,31.40
2022-08-06T18:49:26.753Z,31.70
2022-08-06T18:52:02.275Z,32.70
2022-08-06T18:54:31.547Z,32.40
2022-08-06T18:57:04.205Z,32.30
2022-08-06T19:00:52.790Z,32.30
2022-08-06T19:03:58.498Z,32.60
2022-08-06T19:06:29.952Z,32.90
2022-08-06T19:08:59.628Z,33.70
2022-08-06T19:11:30.816Z,33.60
2022-08-06T19:14:19.081Z,34.40
2022-08-06T19:16:50.713Z,34.00
2022-08-06T19:19:46.403Z,33.80
2022-08-06T19:22:09.857Z,34.80
2022-08-06T19:24:42.495Z,34.70
2022-08-06T19:27:14.317Z,34.90
2022-08-06T19:30:02.028Z,35.20
2022-08-06T19:32:30.411Z,35.80
2022-08-06T19:35:02.975Z,35.80
2022-08-06T19:37:59.857Z,36.10
2022-08-06T19:40:38.508Z,36.20
2022-08-06T19:44:25.487Z,36.40
2022-08-06T19:46:29.869Z,36.60
2022-08-06T19:48:45.006Z,36.60
2022-08-06T19:51:52.686Z,36.80
2022-08-06T19:54:04.327Z,37.70
2022-08-06T19:56:34.820Z,37.10
2022-08-06T20:00:54.840Z,37.60
2022-08-06T20:02:09.105Z,37.70
2022-08-06T20:04:40.171Z,37.90
2022-08-06T20:07:24.714Z,37.90
2022-08-06T20:10:00.005Z,37.90
2022-08-06T20:12:35.079Z,38.10
2022-08-06T20:15:28.208Z,38.10
2022-08-06T20:17:57.294Z,37.90
2022-08-06T20:20:30.370Z,37.90
2022-08-06T20:23:11.364Z,38.10
2022-08-06T20:26:09.387Z,38.20
2022-08-06T20:29:09.988Z,38.20
2022-08-06T20:31:23.736Z,37.70
2022-08-06T20:33:59.664Z,37.80
2022-08-06T20:36:29.177Z,38.10
2022-08-06T20:38:57.995Z,37.80
2022-08-06T20:41:58.739Z,37.90
2022-08-06T20:44:18.318Z,37.70
2022-08-06T20:47:45.311Z,37.90
2022-08-06T20:50:02.634Z,38.30
2022-08-06T20:52:24.918Z,37.70
2022-08-06T20:54:56.777Z,37.50
2022-08-06T20:57:28.500Z,37.40
2022-08-06T21:00:00.031Z,37.50
2022-08-06T21:02:31.797Z,37.30
2022-08-06T21:05:15.885Z,37.50
2022-08-06T21:07:50.990Z,37.30
2022-08-06T21:10:31.381Z,37.40
2022-08-06T21:13:06.333Z,37.40
2022-08-06T21:15:56.299Z,37.50
2022-08-06T21:18:26.280Z,37.70
2022-08-06T21:20:56.142Z,37.70
2022-08-06T21:23:41.805Z,37.90
2022-08-06T21:26:16.057Z,38.10
2022-08-06T21:28:52.304Z,38.10
2022-08-06T21:31:27.228Z,38.30
2022-08-06T21:33:56.989Z,38.40
2022-08-06T21:36:28.678Z,38.50
2022-08-06T21:38:58.927Z,38.50
2022-08-06T21:41:55.854Z,38.60
2022-08-06T21:44:18.001Z,38.60
2022-08-06T21:46:50.037Z,39.00
2022-08-06T21:49:58.136Z,39.10
2022-08-06T21:52:06.901Z,39.30
2022-08-06T21:54:34.980Z,39.30
2022-08-06T21:57:12.000Z,39.60
2022-08-06T21:59:45.849Z,39.50
2022-08-06T22:02:18.581Z,39.60
2022-08-06T22:04:59.596Z,39.80
2022-08-06T22:08:04.739Z,39.90
2022-08-06T22:10:31.739Z,39.90
2022-08-06T22:13:11.744Z,40.10
2022-08-06T22:15:46.209Z,40.40
2022-08-06T22:18:27.986Z,40.50
2022-08-06T22:20:57.512Z,40.80
2022-08-06T22:23:30.225Z,40.40
2022-08-06T22:26:01.507Z,40.40
2022-08-06T22:28:34.350Z,40.60
2022-08-06T22:31:09.231Z,40.60
2022-08-06T22:33:58.333Z,40.70
2022-08-06T22:36:34.718Z,40.80
2022-08-06T22:39:03.690Z,40.80
2022-08-06T22:41:42.736Z,40.80
2022-08-06T22:44:32.929Z,40.70
2022-08-06T22:47:09.541Z,40.90
2022-08-06T22:50:01.384Z,40.90
2022-08-06T22:52:59.287Z,40.60
2022-08-06T22:55:18.266Z,40.40
2022-08-06T22:59:01.592Z,40.30
2022-08-06T23:00:36.158Z,40.30
2022-08-06T23:03:11.697Z,40.30
2022-08-06T23:05:44.520Z,40.20
2022-08-06T23:08:14.842Z,40.70
2022-08-06T23:10:49.322Z,40.90
2022-08-06T23:13:25.801Z,40.70
2022-08-06T23:15:54.613Z,41.20
2022-08-06T23:18:28.462Z,40.60
2022-08-06T23:21:22.023Z,40.60
2022-08-06T23:23:54.175Z,41.10
2022-08-06T23:26:31.331Z,40.90
2022-08-06T23:29:01.596Z,41.00
2022-08-06T23:31:34.010Z,40.90
2022-08-06T23:34:09.814Z,41.00
2022-08-06T23:36:54.890Z,41.10
2022-08-06T23:39:29.058Z,41.30
2022-08-06T23:42:14.328Z,41.10
2022-08-06T23:44:51.686Z,41.60
2022-08-06T23:47:55.428Z,41.00
2022-08-06T23:50:09.686Z,41.30
2022-08-06T23:52:41.609Z,40.80
2022-08-06T23:55:22.646Z,40.70
2022-08-06T23:57:57.936Z,40.60
